Time;durP1;ratioP1;P1;durP2;ratioP2;P2;SDS_P1;SDS_P2;PMS_P1;PMS_P2;Temp;Humidity;BMP_temperature;BMP_pressure;BME280_temperature;BME280_humidity;BME280_pressure;Samples;Min_cycle;Max_cycle;Signal;HPM_P1;HPM_P2
2021/08/23 00:01:02;;;;;;;3.60;1.27;;;14.40;92.80;;;;;;6283084;22;20015;-76
2021/08/23 00:03:38;;;;;;;2.63;1.13;;;14.50;92.80;;;;;;6314059;22;20398;-76
2021/08/23 00:06:06;;;;;;;1.73;1.02;;;14.50;92.60;;;;;;6314708;22;20027;-77
2021/08/23 00:08:33;;;;;;;2.00;0.82;;;14.50;92.70;;;;;;6314834;22;20026;-77
2021/08/23 00:11:02;;;;;;;4.30;1.10;;;14.50;92.60;;;;;;6287730;22;20050;-76
2021/08/23 00:13:36;;;;;;;3.38;1.08;;;14.50;92.20;;;;;;6285447;22;20363;-76
2021/08/23 00:16:04;;;;;;;2.55;1.15;;;14.50;92.10;;;;;;6314079;22;20346;-76
2021/08/23 00:18:31;;;;;;;2.60;1.00;;;14.40;92.00;;;;;;6313690;22;20019;-76
2021/08/23 00:21:02;;;;;;;2.22;1.15;;;14.30;92.10;;;;;;6309874;22;20204;-77
2021/08/23 00:23:36;;;;;;;2.80;1.00;;;14.30;92.40;;;;;;6285191;22;20020;-76
2021/08/23 00:26:04;;;;;;;2.35;1.02;;;14.30;92.80;;;;;;6290432;22;20023;-76
2021/08/23 00:28:31;;;;;;;4.07;1.15;;;14.40;92.80;;;;;;6315071;22;20093;-77
2021/08/23 00:30:58;;;;;;;2.38;1.17;;;14.40;92.70;;;;;;6316458;22;20019;-77
2021/08/23 00:33:26;;;;;;;2.03;0.98;;;14.40;92.70;;;;;;6316851;22;20018;-77
2021/08/23 00:35:53;;;;;;;4.57;1.33;;;14.50;92.50;;;;;;6318242;22;20303;-77
2021/08/23 00:38:21;;;;;;;4.90;1.40;;;14.60;92.60;;;;;;6317148;22;20026;-77
2021/08/23 00:40:49;;;;;;;2.55;0.88;;;14.60;91.90;;;;;;6315753;22;20023;-77
2021/08/23 00:43:16;;;;;;;1.95;0.88;;;14.60;92.30;;;;;;6285479;22;20232;-77
2021/08/23 00:45:43;;;;;;;3.10;0.98;;;14.60;92.10;;;;;;6285587;22;20034;-76
2021/08/23 00:48:11;;;;;;;2.78;1.23;;;14.60;92.00;;;;;;6316696;22;20018;-75
2021/08/23 00:50:38;;;;;;;4.55;1.23;;;14.70;91.90;;;;;;6288282;22;20368;-77
2021/08/23 00:53:06;;;;;;;3.72;1.33;;;14.70;92.10;;;;;;6313173;22;20015;-76
2021/08/23 00:55:34;;;;;;;2.75;1.20;;;14.60;92.10;;;;;;6308088;22;20031;-75
2021/08/23 00:58:02;;;;;;;2.58;1.10;;;14.60;92.20;;;;;;6311256;22;20030;-77
2021/08/23 01:00:32;;;;;;;3.88;1.35;;;14.70;92.50;;;;;;6281465;22;20027;-77
2021/08/23 01:03:01;;;;;;;;;;;14.60;92.40;;;;;;6286581;22;20039;-74
2021/08/23 01:05:33;;;;;;;2.72;1.23;;;14.60;92.00;;;;;;6284279;22;19919;-75
2021/08/23 01:08:04;;;;;;;3.03;1.10;;;14.60;92.20;;;;;;6284359;22;20133;-74
2021/08/23 01:10:32;;;;;;;;;;;14.70;92.10;;;;;;6311245;22;20334;-76
2021/08/23 01:13:00;;;;;;;2.30;0.85;;;14.70;92.10;;;;;;6284171;22;19910;-76
2021/08/23 01:15:38;;;;;;;1.50;0.73;;;14.70;92.10;;;;;;4649138;22;10020744;-76
2021/08/23 01:18:06;;;;;;;5.13;1.58;;;14.80;92.10;;;;;;3042594;22;10002112;-76
2021/08/23 01:20:35;;;;;;;3.03;1.23;;;14.90;92.10;;;;;;6310730;22;20210;-75
2021/08/23 01:23:03;;;;;;;4.60;1.98;;;14.90;91.90;;;;;;6286101;22;20046;-76
2021/08/23 01:25:36;;;;;;;5.93;1.65;;;14.90;92.00;;;;;;6310945;22;20031;-75
2021/08/23 01:28:15;;;;;;;4.63;1.73;;;14.90;92.10;;;;;;6312774;22;20045;-76
2021/08/23 01:30:54;;;;;;;2.60;1.00;;;14.90;92.00;;;;;;6311733;22;20031;-76
2021/08/23 01:33:22;;;;;;;3.25;1.40;;;14.90;91.80;;;;;;6311637;22;20048;-77
2021/08/23 01:35:50;;;;;;;2.72;1.30;;;14.90;91.90;;;;;;6312377;22;20340;-77
2021/08/23 01:38:17;;;;;;;4.93;1.42;;;14.90;91.90;;;;;;6310405;22;20259;-76
2021/08/23 01:40:44;;;;;;;4.55;1.33;;;14.90;92.00;;;;;;6311200;22;20019;-76
2021/08/23 01:43:12;;;;;;;4.22;1.48;;;14.90;92.10;;;;;;6284931;22;20027;-75
2021/08/23 01:45:39;;;;;;;3.70;1.48;;;14.90;92.00;;;;;;6282622;22;20283;-76
2021/08/23 01:48:06;;;;;;;4.57;1.40;;;14.90;92.10;;;;;;6312028;22;20015;-76
2021/08/23 01:50:35;;;;;;;3.00;1.42;;;15.00;92.00;;;;;;6283026;22;20031;-77
2021/08/23 01:53:02;;;;;;;4.85;1.88;;;15.00;92.00;;;;;;6310488;22;20026;-77
2021/08/23 01:55:29;;;;;;;5.28;1.73;;;15.00;92.00;;;;;;6282844;22;20027;-75
2021/08/23 01:57:56;;;;;;;4.70;1.90;;;15.10;91.90;;;;;;6310973;22;20353;-74
2021/08/23 02:00:23;;;;;;;5.47;2.47;;;15.10;92.00;;;;;;6277879;22;20535;-75
2021/08/23 02:02:51;;;;;;;5.72;2.35;;;15.10;92.10;;;;;;6310980;22;20023;-78
2021/08/23 02:05:18;;;;;;;4.63;1.90;;;15.00;92.00;;;;;;6314697;22;20020;-75
2021/08/23 02:07:47;;;;;;;7.97;2.40;;;15.00;92.10;;;;;;6286384;22;20246;-75
2021/08/23 02:10:17;;;;;;;6.95;1.95;;;15.00;92.10;;;;;;6313709;22;20035;-77
2021/08/23 02:12:44;;;;;;;4.40;2.08;;;15.00;92.10;;;;;;6313677;22;20338;-76
2021/08/23 02:15:11;;;;;;;5.28;2.20;;;15.10;92.20;;;;;;6313009;22;20027;-76
2021/08/23 02:17:39;;;;;;;4.85;2.20;;;15.10;92.30;;;;;;6313103;22;20065;-73
2021/08/23 02:20:08;;;;;;;4.32;2.10;;;15.20;92.10;;;;;;6283418;22;20322;-76
2021/08/23 02:22:35;;;;;;;3.97;1.83;;;15.30;92.10;;;;;;6284939;22;20023;-76
2021/08/23 02:25:05;;;;;;;5.60;1.52;;;15.30;91.90;;;;;;6286472;22;20023;-76
2021/08/23 02:27:32;;;;;;;4.70;1.92;;;15.40;91.50;;;;;;6313078;22;20337;-75
2021/08/23 02:29:59;;;;;;;5.05;2.03;;;15.30;91.70;;;;;;6285524;22;20027;-75
2021/08/23 02:32:27;;;;;;;4.80;2.15;;;15.40;91.70;;;;;;6311131;22;20027;-76
2021/08/23 02:34:54;;;;;;;3.55;1.88;;;15.30;91.60;;;;;;6285465;22;20030;-77
2021/08/23 02:37:21;;;;;;;6.00;1.85;;;15.30;91.90;;;;;;6285527;22;20019;-75
2021/08/23 02:39:48;;;;;;;4.97;2.55;;;15.30;91.70;;;;;;6313090;22;20206;-76
2021/08/23 02:42:18;;;;;;;6.93;2.20;;;15.30;91.70;;;;;;6280561;22;20027;-76
2021/08/23 02:44:45;;;;;;;6.40;2.15;;;15.30;91.80;;;;;;6283064;22;20071;-76
2021/08/23 02:47:13;;;;;;;4.70;2.30;;;15.30;91.90;;;;;;6280975;22;20068;-75
2021/08/23 02:49:40;;;;;;;4.45;1.90;;;15.30;91.90;;;;;;6280537;22;20023;-75
2021/08/23 02:52:07;;;;;;;7.93;2.30;;;15.30;92.00;;;;;;6280140;22;20067;-74
2021/08/23 02:54:34;;;;;;;4.03;1.83;;;15.30;91.80;;;;;;6281918;22;20291;-75
2021/08/23 02:57:03;;;;;;;4.20;1.80;;;15.20;91.70;;;;;;6280410;22;20023;-76
2021/08/23 02:59:32;;;;;;;3.70;1.77;;;15.20;91.80;;;;;;6279748;22;20035;-77
2021/08/23 03:01:59;;;;;;;5.72;1.63;;;15.20;92.00;;;;;;6276557;22;20050;-76
2021/08/23 03:04:26;;;;;;;3.60;1.50;;;15.20;92.20;;;;;;6278624;22;20518;-77
2021/08/23 03:06:53;;;;;;;5.95;2.10;;;15.30;92.10;;;;;;6280911;22;20031;-74
2021/08/23 03:09:20;;;;;;;3.80;1.90;;;15.20;92.00;;;;;;6281812;22;20027;-74
2021/08/23 03:11:47;;;;;;;4.20;2.00;;;15.20;92.20;;;;;;6278536;22;20030;-76
2021/08/23 03:14:15;;;;;;;6.15;2.20;;;15.30;92.20;;;;;;6278978;22;20327;-76
2021/08/23 03:16:43;;;;;;;5.32;2.95;;;15.30;92.00;;;;;;6280990;22;20038;-76
2021/08/23 03:19:11;;;;;;;3.70;1.70;;;15.30;91.70;;;;;;6279735;22;20019;-76
2021/08/23 03:21:38;;;;;;;6.30;2.55;;;15.30;92.00;;;;;;6278743;22;20227;-77
2021/08/23 03:24:05;;;;;;;4.53;1.77;;;15.30;91.90;;;;;;6277947;22;20016;-76
2021/08/23 03:26:32;;;;;;;4.93;2.00;;;15.30;91.90;;;;;;6278156;22;20031;-76
2021/08/23 03:28:59;;;;;;;7.30;2.45;;;15.30;91.80;;;;;;6279231;22;20015;-76
2021/08/23 03:31:26;;;;;;;6.78;2.58;;;15.50;91.90;;;;;;6278209;22;20062;-76
2021/08/23 03:33:55;;;;;;;6.78;2.40;;;15.60;91.80;;;;;;6278276;22;20043;-76
2021/08/23 03:36:22;;;;;;;7.25;2.40;;;15.60;91.40;;;;;;6280485;22;20066;-76
2021/08/23 03:38:49;;;;;;;4.00;2.00;;;15.60;91.40;;;;;;6278980;22;20015;-77
2021/08/23 03:41:17;;;;;;;5.57;1.95;;;15.60;91.50;;;;;;6279496;22;20039;-77
2021/08/23 03:43:44;;;;;;;6.50;3.05;;;15.70;91.50;;;;;;6282073;22;20342;-77
2021/08/23 03:46:12;;;;;;;5.25;2.42;;;15.60;91.60;;;;;;6283227;22;20019;-76
2021/08/23 03:48:39;;;;;;;5.45;2.47;;;15.60;91.80;;;;;;6283376;22;20027;-75
2021/08/23 03:51:07;;;;;;;6.75;2.85;;;15.60;91.80;;;;;;6281631;22;20023;-76
2021/08/23 03:53:35;;;;;;;6.45;2.50;;;15.60;91.80;;;;;;6283864;22;20118;-76
2021/08/23 03:56:02;;;;;;;5.38;2.40;;;15.60;91.60;;;;;;6284074;22;20032;-76
2021/08/23 03:58:29;;;;;;;4.90;2.10;;;15.60;91.50;;;;;;6280236;22;20062;-75
2021/08/23 04:00:58;;;;;;;8.68;2.40;;;15.60;91.50;;;;;;6278347;22;20038;-74
2021/08/23 04:03:25;;;;;;;4.95;1.90;;;15.70;91.40;;;;;;6280687;22;20034;-76
2021/08/23 04:05:53;;;;;;;4.88;1.95;;;15.70;91.60;;;;;;6282953;22;20251;-74
2021/08/23 04:08:22;;;;;;;4.07;2.03;;;15.70;91.70;;;;;;6280274;22;20027;-76
2021/08/23 04:10:49;;;;;;;5.38;2.67;;;15.70;91.60;;;;;;6282406;22;20322;-75
2021/08/23 04:13:16;;;;;;;3.83;1.98;;;15.70;91.60;;;;;;6282431;22;20041;-76
2021/08/23 04:15:47;;;;;;;5.43;2.38;;;15.60;91.80;;;;;;6283029;22;20023;-74
2021/08/23 04:18:14;;;;;;;4.70;2.20;;;15.70;91.80;;;;;;6280968;22;20042;-76
2021/08/23 04:20:41;;;;;;;5.57;1.88;;;15.60;91.70;;;;;;6280285;22;20077;-75
2021/08/23 04:23:08;;;;;;;5.43;2.13;;;15.60;91.60;;;;;;6282404;22;20032;-77
2021/08/23 04:25:37;;;;;;;7.03;2.72;;;15.70;91.70;;;;;;6283005;22;20019;-75
2021/08/23 04:28:05;;;;;;;9.68;2.28;;;15.60;91.60;;;;;;6282548;22;20023;-76
2021/08/23 04:30:32;;;;;;;4.75;2.28;;;15.60;91.80;;;;;;6282949;22;20334;-77
2021/08/23 04:32:59;;;;;;;5.70;2.10;;;15.60;91.70;;;;;;6288546;22;20034;-77
2021/08/23 04:35:27;;;;;;;6.25;2.10;;;15.50;91.70;;;;;;6280359;22;20027;-77
2021/08/23 04:37:54;;;;;;;7.40;2.53;;;15.60;91.80;;;;;;6282516;22;20295;-76
2021/08/23 04:40:21;;;;;;;5.32;2.30;;;15.60;91.80;;;;;;6280312;22;20027;-77
2021/08/23 04:42:50;;;;;;;5.22;2.28;;;15.60;91.80;;;;;;6280443;22;20027;-76
2021/08/23 04:45:17;;;;;;;5.47;2.42;;;15.50;91.80;;;;;;6279194;22;20042;-76
2021/08/23 04:47:44;;;;;;;8.82;2.42;;;15.60;91.80;;;;;;6282406;22;20024;-77
2021/08/23 04:50:11;;;;;;;4.65;2.15;;;15.70;92.00;;;;;;6280595;22;20318;-74
2021/08/23 04:52:42;;;;;;;5.88;2.45;;;15.70;91.40;;;;;;6282370;22;20043;-76
2021/08/23 04:55:11;;;;;;;5.28;2.38;;;15.70;91.60;;;;;;6280647;22;20027;-76
2021/08/23 04:57:38;;;;;;;6.65;2.67;;;15.80;91.40;;;;;;6281025;22;20077;-75
2021/08/23 05:00:11;;;;;;;5.97;2.33;;;15.80;91.60;;;;;;6275236;22;20015;-76
2021/08/23 05:02:38;;;;;;;5.28;2.13;;;15.80;91.50;;;;;;6282612;22;20023;-75
2021/08/23 05:05:06;;;;;;;4.45;2.28;;;15.90;91.20;;;;;;6278149;22;20395;-75
2021/08/23 05:07:34;;;;;;;7.70;2.33;;;15.80;91.30;;;;;;6280001;22;20023;-75
2021/08/23 05:10:01;;;;;;;6.07;2.13;;;15.90;91.40;;;;;;6280849;22;20031;-74
2021/08/23 05:12:31;;;;;;;7.40;2.83;;;16.00;91.20;;;;;;6280347;22;20033;-75
2021/08/23 05:14:58;;;;;;;5.18;2.67;;;15.90;91.10;;;;;;6279559;22;20314;-76
2021/08/23 05:17:27;;;;;;;7.40;2.40;;;16.00;91.00;;;;;;6279906;22;20038;-78
2021/08/23 05:19:54;;;;;;;6.10;2.60;;;15.90;91.10;;;;;;6277962;22;20042;-76
2021/08/23 05:22:22;;;;;;;6.18;2.70;;;16.00;91.00;;;;;;6277575;22;20031;-75
2021/08/23 05:24:49;;;;;;;9.10;3.03;;;15.90;90.90;;;;;;6281675;22;20345;-75
2021/08/23 05:27:16;;;;;;;6.10;2.95;;;15.90;91.10;;;;;;6281495;22;20034;-76
2021/08/23 05:29:44;;;;;;;5.72;2.70;;;15.90;91.10;;;;;;6280072;22;20024;-76
2021/08/23 05:32:16;;;;;;;6.82;3.08;;;16.10;91.00;;;;;;6280357;22;20028;-76
2021/08/23 05:34:46;;;;;;;10.52;3.20;;;16.10;90.70;;;;;;6279162;22;20070;-76
2021/08/23 05:37:14;;;;;;;4.95;2.53;;;16.10;90.70;;;;;;6280775;22;20027;-78
2021/08/23 05:39:41;;;;;;;6.78;3.00;;;16.10;90.70;;;;;;6281403;22;20026;-76
2021/08/23 05:42:10;;;;;;;6.28;3.05;;;16.10;90.40;;;;;;6303018;22;20092;-75
2021/08/23 05:44:37;;;;;;;6.65;2.95;;;16.10;90.50;;;;;;6284707;22;20306;-76
2021/08/23 05:47:05;;;;;;;10.75;3.72;;;16.10;90.80;;;;;;6285248;22;20343;-77
2021/08/23 05:49:32;;;;;;;8.13;3.80;;;16.20;90.30;;;;;;6313243;22;20218;-76
2021/08/23 05:52:01;;;;;;;7.95;3.53;;;16.20;90.10;;;;;;6314144;22;20037;-77
2021/08/23 05:54:28;;;;;;;7.20;3.33;;;16.20;90.30;;;;;;6314272;22;20026;-77
2021/08/23 05:56:57;;;;;;;9.52;4.03;;;16.20;90.10;;;;;;6289087;22;20022;-77
2021/08/23 05:59:25;;;;;;;7.43;3.17;;;16.20;90.30;;;;;;6312642;22;20114;-75
2021/08/23 06:01:54;;;;;;;7.10;3.38;;;16.20;90.40;;;;;;6283746;22;20015;-74
2021/08/23 06:04:21;;;;;;;9.68;3.58;;;16.30;90.20;;;;;;6311709;22;20218;-77
2021/08/23 06:06:48;;;;;;;6.68;3.63;;;16.30;90.20;;;;;;6287131;22;20015;-75
2021/08/23 06:09:18;;;;;;;8.02;3.67;;;16.50;90.00;;;;;;6286559;22;20175;-76
2021/08/23 06:11:45;;;;;;;7.70;4.20;;;16.50;89.50;;;;;;6312847;22;20030;-76
2021/08/23 06:14:12;;;;;;;8.23;4.35;;;16.60;89.30;;;;;;6286443;22;20015;-76
2021/08/23 06:16:40;;;;;;;8.45;4.32;;;16.60;89.10;;;;;;6313268;22;20482;-76
2021/08/23 06:19:07;;;;;;;11.80;4.85;;;16.60;89.40;;;;;;6284013;22;20031;-75
2021/08/23 06:21:35;;;;;;;6.00;2.95;;;16.80;89.10;;;;;;6285608;22;20050;-76
2021/08/23 06:24:02;;;;;;;9.70;4.70;;;16.90;88.90;;;;;;6310132;22;20025;-75
2021/08/23 06:26:37;;;;;;;8.95;4.10;;;17.00;88.30;;;;;;6309484;22;20015;-75
2021/08/23 06:29:05;;;;;;;9.63;5.15;;;17.00;87.60;;;;;;6310194;22;20023;-76
2021/08/23 06:31:32;;;;;;;10.52;4.75;;;16.90;87.90;;;;;;6282749;22;20302;-76
2021/08/23 06:33:59;;;;;;;7.97;4.50;;;16.90;88.20;;;;;;6281399;22;20321;-75
2021/08/23 06:36:26;;;;;;;10.00;4.97;;;16.90;87.50;;;;;;6283604;22;20023;-74
2021/08/23 06:38:53;;;;;;;7.88;4.50;;;17.00;88.10;;;;;;6284792;22;20015;-75
2021/08/23 06:41:25;;;;;;;7.57;4.18;;;17.20;88.00;;;;;;6278706;22;20084;-75
2021/08/23 06:43:54;;;;;;;12.50;6.07;;;17.10;87.70;;;;;;6280204;22;20015;-74
2021/08/23 06:46:21;;;;;;;15.00;5.75;;;17.20;87.40;;;;;;6280898;22;20039;-75
2021/08/23 06:48:49;;;;;;;9.23;5.10;;;17.20;87.60;;;;;;6281507;22;20030;-75
2021/08/23 06:51:19;;;;;;;10.68;4.70;;;17.30;87.20;;;;;;6278811;22;20246;-76
2021/08/23 06:53:47;;;;;;;10.32;4.65;;;17.50;86.80;;;;;;6279470;22;20031;-76
2021/08/23 06:56:15;;;;;;;7.05;4.22;;;17.50;86.60;;;;;;6278549;22;20319;-76
2021/08/23 06:58:42;;;;;;;9.80;4.90;;;17.60;86.30;;;;;;6278845;22;20043;-75
2021/08/23 07:01:11;;;;;;;13.63;6.57;;;17.70;86.00;;;;;;6275281;22;20035;-74
2021/08/23 07:03:38;;;;;;;10.48;5.38;;;17.60;85.60;;;;;;6279699;22;20019;-76
2021/08/23 07:06:06;;;;;;;10.13;5.13;;;17.60;85.50;;;;;;6282109;22;20038;-76
2021/08/23 07:08:33;;;;;;;10.82;6.00;;;17.60;85.90;;;;;;6279916;22;20019;-76
2021/08/23 07:11:01;;;;;;;10.57;5.68;;;17.70;85.30;;;;;;6281475;22;20023;-78
2021/08/23 07:13:29;;;;;;;10.07;5.63;;;17.70;85.40;;;;;;6282544;22;20020;-75
2021/08/23 07:15:56;;;;;;;8.57;4.90;;;17.90;85.20;;;;;;6282341;22;20046;-76
2021/08/23 07:18:25;;;;;;;13.15;5.60;;;17.90;85.30;;;;;;6279138;22;20020;-75
2021/08/23 07:20:53;;;;;;;12.45;6.20;;;18.10;84.80;;;;;;6282358;22;20031;-75
2021/08/23 07:23:20;;;;;;;7.97;4.55;;;18.30;84.30;;;;;;6282893;22;20032;-74
2021/08/23 07:25:49;;;;;;;14.55;4.85;;;18.60;82.90;;;;;;6279184;22;20039;-76
2021/08/23 07:28:17;;;;;;;8.32;5.05;;;18.90;81.90;;;;;;6281896;22;20028;-76
2021/08/23 07:30:44;;;;;;;9.40;4.85;;;19.20;82.20;;;;;;6282208;22;20030;-77
2021/08/23 07:33:12;;;;;;;10.10;4.70;;;19.30;80.10;;;;;;6281858;22;20054;-77
2021/08/23 07:35:41;;;;;;;12.70;5.90;;;19.30;79.10;;;;;;6281068;22;20034;-78
2021/08/23 07:38:08;;;;;;;11.37;4.83;;;19.30;79.20;;;;;;6279626;22;20026;-77
2021/08/23 07:40:36;;;;;;;9.48;4.78;;;19.40;79.90;;;;;;6282420;22;20022;-76
2021/08/23 07:43:05;;;;;;;9.77;5.38;;;19.50;78.60;;;;;;6311415;22;20022;-76
2021/08/23 07:45:32;;;;;;;9.38;5.00;;;19.70;77.80;;;;;;6284971;22;20050;-75
2021/08/23 07:47:59;;;;;;;10.82;4.55;;;20.20;76.50;;;;;;6317004;22;20023;-76
2021/08/23 07:50:28;;;;;;;9.87;5.10;;;20.00;77.40;;;;;;6293832;22;20019;-77
2021/08/23 07:52:57;;;;;;;9.40;4.85;;;19.60;78.20;;;;;;6284515;22;20032;-77
2021/08/23 07:55:24;;;;;;;8.93;5.00;;;19.70;77.90;;;;;;6311727;22;20038;-76
2021/08/23 07:57:51;;;;;;;8.90;4.88;;;19.40;78.60;;;;;;6283753;22;20038;-76
2021/08/23 08:00:22;;;;;;;9.13;4.18;;;19.60;79.10;;;;;;6280005;22;20244;-76
2021/08/23 08:02:50;;;;;;;9.45;4.90;;;20.20;77.30;;;;;;6286043;22;20015;-75
2021/08/23 08:05:18;;;;;;;8.68;4.85;;;20.40;76.20;;;;;;6286596;22;20023;-76
2021/08/23 08:07:45;;;;;;;8.75;4.13;;;20.40;76.60;;;;;;6283859;22;20015;-75
2021/08/23 08:10:15;;;;;;;6.20;3.35;;;20.20;76.30;;;;;;6283059;22;20078;-75
2021/08/23 08:12:43;;;;;;;9.15;4.78;;;20.50;76.60;;;;;;6283775;22;20019;-76
2021/08/23 08:15:12;;;;;;;10.70;4.72;;;20.70;75.50;;;;;;6284755;22;20255;-75
2021/08/23 08:17:40;;;;;;;8.57;5.25;;;20.90;74.70;;;;;;6309610;22;20034;-75
2021/08/23 08:20:10;;;;;;;8.38;5.00;;;20.90;75.00;;;;;;6312369;22;20031;-75
2021/08/23 08:22:37;;;;;;;;;;;20.90;74.60;;;;;;6285375;22;20038;-74
2021/08/23 08:25:06;;;;;;;10.02;5.60;;;20.80;74.30;;;;;;6283125;22;19929;-75
2021/08/23 08:27:36;;;;;;;8.60;4.32;;;20.70;74.30;;;;;;6312127;22;20026;-75
2021/08/23 08:30:03;;;;;;;;;;;21.00;73.00;;;;;;6310467;22;20053;-76
2021/08/23 08:32:31;;;;;;;7.90;4.90;;;21.40;72.90;;;;;;6311552;22;19963;-75
2021/08/23 08:34:59;;;;;;;9.93;4.97;;;21.50;72.10;;;;;;6283993;22;20413;-76
2021/08/23 08:37:26;;;;;;;7.70;4.38;;;20.90;73.70;;;;;;6312765;22;20363;-75
2021/08/23 08:39:54;;;;;;;9.90;5.18;;;20.80;74.90;;;;;;6312214;22;20029;-75
2021/08/23 08:42:22;;;;;;;9.38;5.80;;;20.70;75.30;;;;;;6285050;22;20019;-75
2021/08/23 08:44:51;;;;;;;9.75;5.20;;;20.40;75.80;;;;;;6309025;22;20023;-77
2021/08/23 08:47:20;;;;;;;12.82;5.32;;;20.20;76.10;;;;;;6281472;22;20027;-74
2021/08/23 08:49:48;;;;;;;8.15;5.13;;;20.10;76.40;;;;;;6283389;22;20023;-76
2021/08/23 08:52:16;;;;;;;10.75;5.68;;;20.00;76.60;;;;;;6308154;22;20611;-75
2021/08/23 08:54:44;;;;;;;8.82;4.93;;;19.70;77.60;;;;;;6284009;22;20023;-77
2021/08/23 08:57:12;;;;;;;10.70;5.57;;;19.70;77.90;;;;;;6286431;22;20382;-76
2021/08/23 08:59:40;;;;;;;10.65;5.47;;;19.60;78.40;;;;;;6288407;22;20096;-77
2021/08/23 09:02:09;;;;;;;10.35;5.15;;;19.50;78.50;;;;;;6281114;22;20019;-76
2021/08/23 09:04:38;;;;;;;12.38;5.47;;;19.40;78.30;;;;;;6313337;22;20205;-77
2021/08/23 09:07:11;;;;;;;9.43;6.10;;;19.60;78.50;;;;;;6312127;22;20349;-75
2021/08/23 09:09:40;;;;;;;8.45;5.13;;;19.70;78.10;;;;;;6310969;22;20038;-77
2021/08/23 09:12:09;;;;;;;10.50;5.50;;;19.90;78.20;;;;;;6312614;22;20302;-77
2021/08/23 09:14:48;;;;;;;8.85;5.05;;;20.00;78.00;;;;;;6282467;22;20015;-75
2021/08/23 09:17:17;;;;;;;10.13;4.95;;;20.00;77.30;;;;;;6310758;22;20026;-75
2021/08/23 09:19:45;;;;;;;10.60;5.87;;;19.80;77.80;;;;;;6310223;22;20018;-76
2021/08/23 09:22:16;;;;;;;9.90;5.40;;;19.80;77.70;;;;;;6309242;22;20410;-76
2021/08/23 09:24:43;;;;;;;8.68;5.00;;;20.00;77.30;;;;;;6281278;22;20065;-74
2021/08/23 09:27:12;;;;;;;8.68;4.72;;;20.10;77.30;;;;;;6284567;22;20088;-77
2021/08/23 09:29:59;;;;;;;10.63;5.55;;;20.60;75.60;;;;;;6279348;22;20079;-75
2021/08/23 09:32:29;;;;;;;11.73;5.55;;;20.60;76.00;;;;;;6309302;22;20023;-76
2021/08/23 09:34:58;;;;;;;8.65;4.93;;;20.30;75.80;;;;;;6310717;22;20023;-76
2021/08/23 09:37:27;;;;;;;7.95;4.68;;;20.40;75.70;;;;;;6282899;22;20344;-75
2021/08/23 09:39:55;;;;;;;12.95;5.50;;;20.30;76.80;;;;;;6310116;22;20069;-74
2021/08/23 09:42:25;;;;;;;;;;;20.30;76.30;;;;;;6276037;22;20031;-75
2021/08/23 09:44:54;;;;;;;8.80;4.72;;;20.60;75.90;;;;;;6278186;22;20149;-75
2021/08/23 09:47:29;;;;;;;7.93;4.68;;;20.50;77.00;;;;;;6275910;22;20039;-75
2021/08/23 09:49:57;;;;;;;9.80;4.80;;;20.70;75.70;;;;;;6276845;22;20279;-76
2021/08/23 09:52:30;;;;;;;8.68;5.22;;;21.10;74.30;;;;;;6278288;22;20023;-74
2021/08/23 09:55:02;;;;;;;10.27;4.50;;;21.20;73.20;;;;;;6276039;22;20026;-75
2021/08/23 09:57:31;;;;;;;8.27;4.50;;;21.00;74.10;;;;;;6275685;22;20027;-75
2021/08/23 09:59:59;;;;;;;10.10;5.43;;;21.10;74.60;;;;;;6278665;22;20051;-75
2021/08/23 10:02:29;;;;;;;9.52;5.38;;;20.70;75.70;;;;;;6272652;22;20046;-78
2021/08/23 10:04:58;;;;;;;8.73;4.18;;;20.30;77.40;;;;;;6277125;22;20061;-76
2021/08/23 10:07:27;;;;;;;8.77;4.53;;;20.10;77.90;;;;;;6275156;22;20023;-75
2021/08/23 10:09:55;;;;;;;8.32;4.90;;;19.90;79.10;;;;;;6273473;22;20023;-73
2021/08/23 10:12:23;;;;;;;9.82;5.22;;;20.00;80.00;;;;;;6267909;22;20330;-75
2021/08/23 10:14:51;;;;;;;6.47;3.78;;;20.00;81.90;;;;;;6275875;22;20389;-75
2021/08/23 10:17:18;;;;;;;8.73;4.80;;;20.20;81.00;;;;;;6278285;22;20027;-75
2021/08/23 10:19:47;;;;;;;8.70;4.45;;;20.30;80.70;;;;;;6274478;22;20024;-76
2021/08/23 10:22:15;;;;;;;9.20;4.05;;;20.60;78.00;;;;;;6278542;22;20073;-74
2021/08/23 10:24:43;;;;;;;6.60;3.70;;;20.80;77.10;;;;;;6278815;22;20020;-75
2021/08/23 10:27:22;;;;;;;7.43;3.70;;;21.00;76.10;;;;;;6276963;22;20027;-76
2021/08/23 10:29:50;;;;;;;7.10;3.83;;;22.80;72.50;;;;;;6277681;22;20019;-75
2021/08/23 10:32:19;;;;;;;7.13;3.42;;;25.40;64.70;;;;;;6278074;22;20047;-77
2021/08/23 10:34:47;;;;;;;8.47;3.83;;;26.60;59.00;;;;;;6281399;22;20027;-77
2021/08/23 10:37:31;;;;;;;7.28;3.78;;;26.60;59.60;;;;;;6277238;22;20096;-77
2021/08/23 10:40:02;;;;;;;7.32;3.80;;;27.30;59.40;;;;;;6278985;22;20203;-74
2021/08/23 10:42:41;;;;;;;5.70;2.88;;;27.90;57.30;;;;;;6272217;22;20027;-76
2021/08/23 10:45:10;;;;;;;5.38;3.35;;;27.70;56.40;;;;;;6301777;22;20036;-76
2021/08/23 10:47:38;;;;;;;6.05;3.20;;;27.00;56.50;;;;;;6309818;22;20038;-75
2021/08/23 10:50:08;;;;;;;7.43;4.05;;;26.40;57.20;;;;;;6307584;22;20038;-75
2021/08/23 10:52:36;;;;;;;6.78;3.58;;;25.60;59.90;;;;;;6281185;22;20041;-75
2021/08/23 10:55:07;;;;;;;5.63;3.25;;;25.10;61.30;;;;;;6283582;22;20087;-76
2021/08/23 10:57:34;;;;;;;6.70;3.08;;;24.90;62.20;;;;;;6285585;22;20035;-75
2021/08/23 11:00:10;;;;;;;7.07;3.20;;;24.70;61.20;;;;;;6282915;22;20023;-76
2021/08/23 11:02:39;;;;;;;6.60;3.30;;;24.50;61.10;;;;;;6289796;22;20331;-75
2021/08/23 11:05:13;;;;;;;11.02;3.67;;;24.00;61.60;;;;;;6288100;22;20015;-75
2021/08/23 11:07:41;;;;;;;6.18;3.10;;;23.60;63.40;;;;;;6306665;22;20050;-76
2021/08/23 11:10:11;;;;;;;5.50;3.03;;;23.30;65.30;;;;;;6317068;22;20030;-76
2021/08/23 11:12:44;;;;;;;4.63;2.38;;;23.30;65.60;;;;;;6313478;22;20015;-76
2021/08/23 11:15:18;;;;;;;7.15;3.33;;;23.40;65.10;;;;;;6281960;22;20027;-75
2021/08/23 11:17:47;;;;;;;7.00;3.03;;;23.40;65.40;;;;;;6283132;22;20019;-76
2021/08/23 11:20:20;;;;;;;7.05;3.53;;;23.30;66.60;;;;;;6309723;22;20030;-76
2021/08/23 11:22:53;;;;;;;5.85;3.47;;;23.50;65.30;;;;;;6281557;22;20034;-76
2021/08/23 11:25:27;;;;;;;5.15;3.00;;;23.60;64.80;;;;;;6278615;22;20061;-76
2021/08/23 11:27:54;;;;;;;5.43;2.88;;;23.70;64.20;;;;;;6279153;22;20015;-76
2021/08/23 11:30:28;;;;;;;9.88;3.72;;;23.90;64.00;;;;;;6307791;22;20027;-76
2021/08/23 11:32:56;;;;;;;5.35;2.88;;;24.10;64.50;;;;;;6309240;22;20034;-76
2021/08/23 11:35:24;;;;;;;5.68;2.72;;;24.50;61.70;;;;;;6309729;22;20023;-76
2021/08/23 11:38:00;;;;;;;5.33;2.70;;;25.00;59.90;;;;;;6310610;22;20325;-76
2021/08/23 11:40:27;;;;;;;5.25;2.90;;;25.20;58.90;;;;;;6308244;22;20046;-76
2021/08/23 11:42:56;;;;;;;4.57;2.40;;;25.00;58.80;;;;;;6278193;22;20020;-74
2021/08/23 11:45:27;;;;;;;4.88;2.38;;;24.90;58.80;;;;;;6276322;22;20023;-75
2021/08/23 11:47:55;;;;;;;7.47;2.40;;;25.00;59.60;;;;;;6277318;22;20016;-76
2021/08/23 11:50:24;;;;;;;4.22;2.22;;;25.10;59.50;;;;;;6251841;22;20065;-75
2021/08/23 11:52:52;;;;;;;;;;;25.30;58.70;;;;;;6279888;22;20030;-76
2021/08/23 11:55:27;;;;;;;4.25;2.30;;;25.70;57.70;;;;;;6256668;22;19934;-75
2021/08/23 11:58:00;;;;;;;4.55;2.30;;;26.50;56.10;;;;;;6257100;22;20283;-76
2021/08/23 12:00:28;;;;;;;4.43;2.20;;;28.00;52.40;;;;;;6275986;22;20207;-74
2021/08/23 12:03:03;;;;;;;3.95;1.88;;;28.60;50.40;;;;;;6282301;22;20034;-75
2021/08/23 12:05:36;;;;;;;5.20;2.03;;;28.30;50.10;;;;;;6279464;22;20227;-75
2021/08/23 12:08:04;;;;;;;4.15;1.77;;;27.80;51.30;;;;;;6282378;22;20319;-75
2021/08/23 12:10:32;;;;;;;4.13;1.95;;;26.80;52.40;;;;;;6250961;22;20051;-74
2021/08/23 12:13:11;;;;;;;5.68;2.10;;;26.10;54.80;;;;;;6280904;22;20027;-75
2021/08/23 12:15:50;;;;;;;4.43;2.03;;;25.30;56.50;;;;;;6254305;22;20028;-75
2021/08/23 12:18:17;;;;;;;3.63;1.83;;;24.90;57.90;;;;;;6278616;22;20031;-76
2021/08/23 12:21:04;;;;;;;3.38;1.75;;;24.70;59.30;;;;;;6255546;22;20069;-76
2021/08/23 12:23:43;;;;;;;4.53;2.22;;;24.30;60.10;;;;;;6281313;22;20016;-77
2021/08/23 12:26:13;;;;;;;4.17;2.30;;;24.30;61.00;;;;;;6281833;22;20020;-76
2021/08/23 12:28:48;;;;;;;4.47;2.00;;;24.10;61.30;;;;;;6253096;22;20417;-75
2021/08/23 12:31:15;;;;;;;5.30;1.60;;;24.10;61.30;;;;;;6252030;22;20293;-76
2021/08/23 12:33:44;;;;;;;3.72;1.88;;;24.10;61.80;;;;;;6280725;22;20023;-75
2021/08/23 12:36:14;;;;;;;4.60;2.03;;;24.00;62.20;;;;;;6253434;22;20027;-75
2021/08/23 12:38:44;;;;;;;3.65;1.80;;;24.00;61.90;;;;;;6251052;22;20422;-76
2021/08/23 12:41:11;;;;;;;3.67;2.05;;;23.70;63.50;;;;;;6287769;22;20384;-75
2021/08/23 12:43:39;;;;;;;3.47;1.88;;;23.60;64.80;;;;;;6311461;22;20030;-75
2021/08/23 12:46:07;;;;;;;5.25;2.03;;;24.00;64.00;;;;;;6313795;22;20022;-75
2021/08/23 12:48:35;;;;;;;3.58;1.80;;;24.60;62.60;;;;;;6283413;22;20077;-75
2021/08/23 12:51:04;;;;;;;3.25;1.75;;;24.80;61.40;;;;;;6312715;22;20034;-75
2021/08/23 12:53:33;;;;;;;3.10;1.70;;;25.10;61.10;;;;;;6312906;22;20021;-76
2021/08/23 12:56:01;;;;;;;5.90;1.88;;;25.40;59.80;;;;;;6314239;22;20027;-76